Time;durP1;ratioP1;P1;durP2;ratioP2;P2;SDS_P1;SDS_P2;PMS_P1;PMS_P2;Temp;Humidity;BMP_temperature;BMP_pressure;BME280_temperature;BME280_humidity;BME280_pressure;Samples;Min_cycle;Max_cycle;Signal;HPM_P1;HPM_P2
2023/01/27 00:00:14;;;;;;;20.75;9.73;;;5.30;99.90;;;;;;5081938;28;20063;-87
2023/01/27 00:02:40;;;;;;;18.50;9.68;;;4.30;99.90;;;;;;5081842;28;20559;-86
2023/01/27 00:05:07;;;;;;;16.13;9.15;;;4.20;99.90;;;;;;5095904;28;20032;-88
2023/01/27 00:07:33;;;;;;;15.05;8.45;;;4.20;99.90;;;;;;5080936;28;20544;-87
2023/01/27 00:09:59;;;;;;;18.45;9.65;;;5.10;99.90;;;;;;5068454;28;20048;-88
2023/01/27 00:15:12;;;;;;;13.63;8.07;;;5.90;99.90;;;;;;5095455;28;20040;-87
2023/01/27 00:17:37;;;;;;;14.57;8.23;;;5.90;99.90;;;;;;5083520;28;20027;-88
2023/01/27 00:20:04;;;;;;;13.82;8.07;;;5.00;99.90;;;;;;5097710;28;20039;-88
2023/01/27 00:25:15;;;;;;;17.38;7.43;;;5.00;99.90;;;;;;5097766;28;20412;-87
2023/01/27 00:27:41;;;;;;;14.65;7.45;;;4.10;99.90;;;;;;5052050;28;20047;-88
2023/01/27 00:30:08;;;;;;;12.80;5.90;;;;;;;;;;5079301;28;20048;-89
2023/01/27 00:35:18;;;;;;;13.07;5.47;;;4.10;99.90;;;;;;5096632;28;20461;-87
2023/01/27 00:37:44;;;;;;;12.98;5.72;;;5.60;99.90;;;;;;5062488;28;20039;-88
2023/01/27 00:40:12;;;;;;;12.10;4.97;;;5.90;99.90;;;;;;5066791;28;20089;-89
2023/01/27 00:42:38;;;;;;;10.93;5.28;;;4.10;99.90;;;;;;5068143;28;20061;-89
2023/01/27 00:47:49;;;;;;;11.48;5.50;;;4.10;99.90;;;;;;5096925;28;20100;-88
2023/01/27 00:50:15;;;;;;;10.88;5.03;;;4.10;99.90;;;;;;5080235;28;20043;-88
2023/01/27 00:52:42;;;;;;;11.27;4.93;;;5.30;99.90;;;;;;5099594;28;20333;-87
2023/01/27 00:55:09;;;;;;;13.15;4.93;;;4.10;99.90;;;;;;5078098;28;20515;-88
2023/01/27 00:57:38;;;;;;;10.60;4.50;;;4.40;99.90;;;;;;5103715;28;20035;-87
2023/01/27 01:00:08;;;;;;;11.45;4.88;;;4.10;99.90;;;;;;5080378;28;20036;-88
2023/01/27 01:02:35;;;;;;;11.23;4.43;;;4.10;99.90;;;;;;5085276;28;20035;-88
2023/01/27 01:05:01;;;;;;;11.05;4.40;;;4.70;99.90;;;;;;5089898;28;20508;-89
2023/01/27 01:07:26;;;;;;;10.85;4.47;;;4.10;99.90;;;;;;5069141;28;20089;-88
2023/01/27 01:09:55;;;;;;;11.80;3.95;;;;;;;;;;5070063;28;20078;-88
2023/01/27 01:12:21;;;;;;;13.45;4.32;;;4.20;99.90;;;;;;5103400;28;20126;-88
2023/01/27 01:14:47;;;;;;;9.35;4.10;;;4.20;99.90;;;;;;5108369;28;20126;-89
2023/01/27 01:17:15;;;;;;;10.07;4.50;;;4.20;99.90;;;;;;5085941;28;20040;-88
2023/01/27 01:19:41;;;;;;;9.65;4.43;;;4.20;99.90;;;;;;5107432;28;20047;-88
2023/01/27 01:22:06;;;;;;;11.77;4.50;;;6.00;99.90;;;;;;5088148;28;20039;-87
2023/01/27 01:24:32;;;;;;;9.05;4.10;;;5.40;99.90;;;;;;5070503;28;20074;-87
2023/01/27 01:26:59;;;;;;;10.80;4.90;;;5.90;99.90;;;;;;5044163;28;20050;-87
2023/01/27 01:29:25;;;;;;;11.10;4.57;;;4.10;99.90;;;;;;5108320;27;20536;-88
2023/01/27 01:31:51;;;;;;;12.13;4.63;;;4.20;99.90;;;;;;5088955;28;20493;-88
2023/01/27 01:34:16;;;;;;;11.77;4.60;;;4.80;99.90;;;;;;5068782;28;20127;-87
2023/01/27 01:36:44;;;;;;;11.40;4.32;;;4.20;99.90;;;;;;5088942;28;20541;-88
2023/01/27 01:39:10;;;;;;;10.77;4.22;;;5.30;99.90;;;;;;5054743;28;20028;-87
2023/01/27 01:41:36;;;;;;;11.13;3.75;;;4.20;99.90;;;;;;5084260;28;20038;-88
2023/01/27 01:44:24;;;;;;;9.25;3.60;;;;;;;;;;5079408;28;20046;-88
2023/01/27 01:46:52;;;;;;;10.23;3.55;;;4.20;99.90;;;;;;5104849;28;20131;-87
2023/01/27 01:49:35;;;;;;;10.25;3.38;;;4.20;99.90;;;;;;5082757;28;20212;-88
2023/01/27 01:52:21;;;;;;;8.80;3.38;;;4.30;99.90;;;;;;5102251;28;20071;-88
2023/01/27 01:54:52;;;;;;;7.85;3.00;;;4.20;99.90;;;;;;5104490;28;20131;-88
2023/01/27 01:57:22;;;;;;;8.82;3.25;;;4.30;99.90;;;;;;5102203;28;20114;-87
2023/01/27 01:59:56;;;;;;;8.32;3.00;;;6.10;99.90;;;;;;5104469;27;20068;-88
2023/01/27 02:02:26;;;;;;;8.88;3.08;;;4.30;99.90;;;;;;5102174;28;20032;-88
2023/01/27 02:05:07;;;;;;;9.05;3.20;;;4.30;99.90;;;;;;5088411;28;20066;-88
2023/01/27 02:07:52;;;;;;;8.48;2.83;;;4.20;99.90;;;;;;5085736;28;20048;-88
2023/01/27 02:10:21;;;;;;;7.88;2.85;;;;;;;;;;5079316;28;20036;-88
2023/01/27 02:12:47;;;;;;;7.20;2.58;;;4.20;99.90;;;;;;5087176;28;20065;-88
2023/01/27 02:15:16;;;;;;;11.38;2.60;;;4.30;99.90;;;;;;5078554;28;20040;-88
2023/01/27 02:17:42;;;;;;;7.65;2.60;;;4.30;99.90;;;;;;5068650;28;20146;-88
2023/01/27 02:20:17;;;;;;;8.43;2.30;;;4.30;99.90;;;;;;5083249;28;20035;-88
2023/01/27 02:23:00;;;;;;;10.48;2.30;;;4.30;99.90;;;;;;5079410;28;20168;-89
2023/01/27 02:25:34;;;;;;;6.57;2.00;;;4.40;99.90;;;;;;5101726;28;20131;-88
2023/01/27 02:28:04;;;;;;;6.97;2.10;;;;;;;;;;5081200;28;20035;-88
2023/01/27 02:30:30;;;;;;;7.18;2.20;;;4.40;99.90;;;;;;5097541;28;20500;-87
2023/01/27 02:32:56;;;;;;;6.40;2.03;;;;;;;;;;5077708;28;20040;-89
2023/01/27 02:35:35;;;;;;;7.97;2.25;;;4.30;99.90;;;;;;5083775;28;20092;-88
2023/01/27 02:38:05;;;;;;;7.22;2.20;;;4.30;99.90;;;;;;5080251;28;20036;-87
2023/01/27 02:40:32;;;;;;;5.90;2.08;;;4.30;99.90;;;;;;5080358;28;20039;-89
2023/01/27 02:43:01;;;;;;;7.05;2.30;;;4.30;99.90;;;;;;5081862;28;20059;-89
2023/01/27 02:45:27;;;;;;;5.03;2.00;;;4.30;99.90;;;;;;5083764;28;20043;-87
2023/01/27 02:47:53;;;;;;;6.00;2.03;;;4.30;99.90;;;;;;5101652;28;20036;-88
2023/01/27 02:50:19;;;;;;;6.47;2.13;;;4.30;99.90;;;;;;5069012;28;20097;-90
2023/01/27 02:52:45;;;;;;;7.80;2.20;;;4.30;99.90;;;;;;5080888;28;20040;-88
2023/01/27 02:55:10;;;;;;;7.78;2.10;;;4.20;99.90;;;;;;5100250;28;20038;-88
2023/01/27 02:57:41;;;;;;;5.63;2.03;;;6.10;99.90;;;;;;5076884;28;20274;-87
2023/01/27 03:00:12;;;;;;;6.57;1.92;;;;;;;;;;5053277;28;20036;-88
2023/01/27 03:02:37;;;;;;;8.07;2.20;;;4.30;99.90;;;;;;5084321;28;20036;-88
2023/01/27 03:05:14;;;;;;;9.43;2.60;;;4.20;99.90;;;;;;5080379;28;20050;-88
2023/01/27 03:07:42;;;;;;;6.00;2.10;;;4.20;99.90;;;;;;5051290;28;20059;-88
2023/01/27 03:10:09;;;;;;;5.60;1.92;;;;;;;;;;5083411;28;20069;-89
2023/01/27 03:12:35;;;;;;;8.38;2.20;;;;;;;;;;5079654;28;20645;-88
2023/01/27 03:20:30;;;;;;;6.57;1.95;;;6.00;99.90;;;;;;5067496;28;20125;-87
2023/01/27 03:23:01;;;;;;;6.68;2.00;;;5.70;99.90;;;;;;5080289;28;20075;-88
2023/01/27 03:25:32;;;;;;;7.03;1.85;;;4.20;99.90;;;;;;5071013;28;20062;-90
2023/01/27 03:27:58;;;;;;;7.82;2.00;;;5.30;99.90;;;;;;5079450;28;20181;-86
2023/01/27 03:30:28;;;;;;;7.53;2.00;;;4.10;99.90;;;;;;5081562;28;20123;-89
2023/01/27 03:32:54;;;;;;;8.45;2.30;;;4.10;99.90;;;;;;5090725;28;20412;-88
2023/01/27 03:35:32;;;;;;;5.47;1.73;;;4.10;99.90;;;;;;5067621;28;20278;-90
2023/01/27 03:46:23;;;;;;;5.70;1.80;;;4.10;99.90;;;;;;5084873;28;20053;-89
2023/01/27 03:48:56;;;;;;;5.28;1.67;;;4.10;99.90;;;;;;5076535;28;20093;-89
2023/01/27 03:51:23;;;;;;;9.02;2.20;;;;;;;;;;5077862;28;20039;-86
2023/01/27 03:53:53;;;;;;;7.25;2.10;;;;;;;;;;5080355;28;20080;-89
2023/01/27 03:56:24;;;;;;;7.05;1.98;;;4.10;99.90;;;;;;5065881;28;20535;-90
2023/01/27 03:58:53;;;;;;;7.05;2.00;;;;;;;;;;5102397;27;20031;-89
2023/01/27 04:01:23;;;;;;;7.65;2.13;;;4.00;99.90;;;;;;5077502;28;20093;-87
2023/01/27 04:07:01;;;;;;;7.50;2.10;;;3.70;99.90;;;;;;5097391;28;20205;-89
2023/01/27 04:09:29;;;;;;;5.10;1.90;;;;;;;;;;5095298;28;20108;-89
2023/01/27 04:12:01;;;;;;;6.88;2.00;;;4.00;99.90;;;;;;5076028;28;20043;-88
2023/01/27 04:14:38;;;;;;;7.28;2.13;;;4.00;99.90;;;;;;5077499;28;20054;-89
2023/01/27 04:17:12;;;;;;;6.72;2.30;;;3.90;99.90;;;;;;5081126;28;20042;-90
2023/01/27 04:19:41;;;;;;;6.75;2.30;;;3.90;99.90;;;;;;5080950;28;20070;-89
2023/01/27 04:22:08;;;;;;;8.02;2.40;;;;;;;;;;5095248;28;20175;-90
2023/01/27 04:24:33;;;;;;;9.98;2.40;;;3.90;99.90;;;;;;5081923;28;20126;-89
2023/01/27 04:27:05;;;;;;;8.43;2.30;;;3.90;99.90;;;;;;5079892;28;20440;-88
2023/01/27 04:29:36;;;;;;;6.85;2.35;;;3.90;99.90;;;;;;5084494;28;20043;-88
2023/01/27 04:32:05;;;;;;;10.05;2.65;;;5.60;99.90;;;;;;5083168;28;20421;-88
2023/01/27 04:34:31;;;;;;;5.53;2.00;;;4.00;99.90;;;;;;5100090;28;20040;-88
2023/01/27 04:36:57;;;;;;;7.70;2.13;;;4.00;99.90;;;;;;5099096;28;20043;-89
2023/01/27 04:39:24;;;;;;;6.38;2.00;;;4.00;99.90;;;;;;5081719;28;20042;-88
2023/01/27 04:41:50;;;;;;;9.25;2.40;;;3.90;99.90;;;;;;5079048;28;20044;-88
2023/01/27 04:44:20;;;;;;;7.95;2.60;;;4.90;99.90;;;;;;5100147;28;20530;-88
2023/01/27 04:46:46;;;;;;;8.90;2.80;;;;;;;;;;5067814;28;20156;-90
2023/01/27 04:49:27;;;;;;;8.15;2.58;;;3.90;99.90;;;;;;5083203;28;20403;-88
2023/01/27 04:51:53;;;;;;;8.20;2.60;;;3.90;99.90;;;;;;5075281;28;20450;-88
2023/01/27 04:54:22;;;;;;;8.25;2.78;;;;;;;;;;5065747;28;20036;-87
2023/01/27 04:56:58;;;;;;;8.60;2.65;;;3.90;99.90;;;;;;5077594;28;20042;-89
2023/01/27 04:59:32;;;;;;;9.75;2.88;;;3.90;99.90;;;;;;5094501;28;20036;-87
2023/01/27 05:01:58;;;;;;;9.18;3.22;;;3.90;99.90;;;;;;5064489;28;20535;-88
2023/01/27 05:04:25;;;;;;;7.72;2.85;;;3.80;99.90;;;;;;5099251;28;20038;-88
2023/01/27 05:06:54;;;;;;;7.80;2.88;;;;;;;;;;5096510;28;20607;-88
2023/01/27 05:09:20;;;;;;;7.82;2.90;;;3.90;99.90;;;;;;5098841;28;20068;-90
2023/01/27 05:11:46;;;;;;;8.60;2.50;;;3.80;99.90;;;;;;5059655;28;20051;-89
2023/01/27 05:14:12;;;;;;;8.15;2.88;;;3.80;99.90;;;;;;5082009;28;20084;-89
2023/01/27 05:16:41;;;;;;;10.20;2.97;;;3.80;99.90;;;;;;5060402;28;20032;-89
2023/01/27 05:19:10;;;;;;;11.27;3.20;;;3.90;99.90;;;;;;5065734;28;20113;-89
2023/01/27 05:21:39;;;;;;;9.90;3.05;;;;;;;;;;5072172;28;20031;-88
2023/01/27 05:24:05;;;;;;;8.32;2.75;;;3.80;99.90;;;;;;5074763;28;20149;-89
2023/01/27 05:26:33;;;;;;;7.90;2.70;;;3.80;99.90;;;;;;5060419;28;20040;-89
2023/01/27 05:29:07;;;;;;;8.40;2.78;;;3.80;99.90;;;;;;5058705;28;20495;-88
2023/01/27 05:31:41;;;;;;;7.88;2.70;;;4.00;99.90;;;;;;5081167;28;20052;-88
2023/01/27 05:34:08;;;;;;;8.43;2.55;;;;;;;;;;5080594;28;20052;-88
2023/01/27 05:36:57;;;;;;;8.85;2.40;;;3.80;99.90;;;;;;5094343;28;20036;-89
2023/01/27 05:39:25;;;;;;;7.88;2.60;;;;;;;;;;5095526;28;20043;-88
2023/01/27 05:41:51;;;;;;;8.65;2.45;;;3.70;99.90;;;;;;5076634;28;20492;-91
2023/01/27 05:44:17;;;;;;;9.10;2.67;;;;;;;;;;5077267;28;20051;-88
2023/01/27 05:46:54;;;;;;;7.20;2.20;;;3.80;99.90;;;;;;5095952;28;20453;-89
2023/01/27 05:49:23;;;;;;;7.53;2.20;;;3.70;99.90;;;;;;5083714;28;20114;-89
2023/01/27 05:51:52;;;;;;;14.02;2.53;;;3.70;99.90;;;;;;5085787;28;20084;-90
2023/01/27 05:54:20;;;;;;;9.07;2.50;;;3.60;99.90;;;;;;5066736;28;20136;-88
2023/01/27 05:56:55;;;;;;;7.80;2.03;;;3.70;99.90;;;;;;5093625;28;20119;-88
2023/01/27 05:59:24;;;;;;;6.20;2.00;;;3.70;99.90;;;;;;5095911;28;20032;-88
2023/01/27 06:01:52;;;;;;;7.10;2.10;;;;;;;;;;5102145;28;20027;-88
2023/01/27 06:04:18;;;;;;;6.45;2.20;;;3.70;99.90;;;;;;5068109;28;20040;-88
2023/01/27 06:07:05;;;;;;;5.70;2.00;;;3.70;99.90;;;;;;5078599;28;20413;-88
2023/01/27 06:09:37;;;;;;;7.93;2.22;;;3.60;99.90;;;;;;5077046;28;20059;-89
2023/01/27 06:12:03;;;;;;;6.83;2.30;;;3.50;99.90;;;;;;5078634;28;20086;-88
2023/01/27 06:14:30;;;;;;;6.80;2.20;;;3.50;99.90;;;;;;5075466;28;20130;-88
2023/01/27 06:16:56;;;;;;;8.73;2.10;;;;;;;;;;5080192;28;20102;-88
2023/01/27 06:19:23;;;;;;;6.97;2.00;;;;;;;;;;5078055;28;20130;-89
2023/01/27 06:21:51;;;;;;;6.57;2.05;;;3.50;99.90;;;;;;5097392;28;20035;-88
2023/01/27 06:24:23;;;;;;;6.55;1.90;;;3.50;99.90;;;;;;5086640;28;20481;-89
2023/01/27 06:27:10;;;;;;;4.65;1.73;;;3.50;99.90;;;;;;5085157;28;20093;-89
2023/01/27 06:29:38;;;;;;;6.22;1.85;;;4.20;99.90;;;;;;5098063;28;20040;-90
2023/01/27 06:32:04;;;;;;;6.97;2.08;;;3.40;99.90;;;;;;5076065;28;20625;-89
2023/01/27 06:34:33;;;;;;;8.18;2.00;;;;;;;;;;5072680;28;20048;-89
2023/01/27 06:37:09;;;;;;;6.82;1.88;;;3.50;99.90;;;;;;5072077;28;20466;-89
2023/01/27 06:39:38;;;;;;;6.03;2.00;;;;;;;;;;5065163;28;20527;-90
2023/01/27 06:42:06;;;;;;;5.20;1.77;;;;;;;;;;5089671;28;20515;-89
2023/01/27 06:44:37;;;;;;;6.55;2.00;;;3.50;99.90;;;;;;5076918;28;20051;-89
2023/01/27 06:47:05;;;;;;;7.28;1.73;;;3.40;99.90;;;;;;5094573;28;20415;-89
2023/01/27 06:49:31;;;;;;;7.95;2.00;;;3.50;99.90;;;;;;5081459;28;20065;-88
2023/01/27 06:51:57;;;;;;;5.32;1.73;;;;;;;;;;5080763;28;20416;-88
2023/01/27 06:54:28;;;;;;;5.65;1.92;;;3.50;99.90;;;;;;5078035;28;20531;-88
2023/01/27 06:56:57;;;;;;;7.60;2.00;;;3.40;99.90;;;;;;5079511;28;20043;-90
2023/01/27 06:59:29;;;;;;;8.13;1.92;;;;;;;;;;5072562;28;20090;-87
2023/01/27 07:01:57;;;;;;;6.43;1.90;;;3.50;99.90;;;;;;5084224;28;20059;-88
2023/01/27 07:04:26;;;;;;;6.15;1.80;;;;;;;;;;5065691;28;20163;-88
2023/01/27 07:06:56;;;;;;;5.20;1.70;;;;;;;;;;5095626;28;20066;-88
2023/01/27 07:09:22;;;;;;;6.60;1.80;;;3.60;99.90;;;;;;5076118;28;20040;-89
2023/01/27 07:11:53;;;;;;;7.82;2.08;;;;;;;;;;5095136;28;20040;-87
2023/01/27 07:14:22;;;;;;;6.47;1.98;;;3.50;99.90;;;;;;5095840;28;20048;-88
2023/01/27 07:16:50;;;;;;;8.27;1.92;;;3.50;99.90;;;;;;5084281;28;20119;-88
2023/01/27 07:19:26;;;;;;;5.35;2.00;;;3.60;99.90;;;;;;5071024;28;20028;-88
2023/01/27 07:21:59;;;;;;;7.60;2.15;;;3.60;99.90;;;;;;5057055;28;20028;-86
2023/01/27 07:24:25;;;;;;;;;;;3.60;99.90;;;;;;5086633;28;20134;-85
2023/01/27 07:26:53;;;;;;;6.32;1.85;;;3.60;99.90;;;;;;5081133;28;20052;-86
2023/01/27 07:29:40;;;;;;;8.07;2.10;;;3.60;99.90;;;;;;5091847;28;20391;-88
2023/01/27 07:39:49;;;;;;;9.23;2.30;;;3.60;99.90;;;;;;5061902;28;20054;-90
2023/01/27 07:42:54;;;;;;;;;;;;;;;;;;;;;
2023/01/27 07:47:04;;;;;;;;;;;;;;;;;;;;;
2023/01/27 07:53:09;;;;;;;6.50;2.10;;;;;;;;;;4994054;28;20088;-91
2023/01/27 08:02:48;;;;;;;8.70;2.47;;;3.60;99.90;;;;;;4979512;28;20132;-87
2023/01/27 08:05:14;;;;;;;10.25;2.30;;;4.80;99.90;;;;;;5024556;28;20083;-88
2023/01/27 08:07:40;;;;;;;10.65;2.38;;;;;;;;;;5073913;28;20094;-86
2023/01/27 08:10:06;;;;;;;13.05;2.83;;;3.70;99.90;;;;;;5080074;28;20048;-88
2023/01/27 08:12:32;;;;;;;9.20;2.38;;;3.70;99.90;;;;;;5079469;28;20054;-87
2023/01/27 08:15:01;;;;;;;10.05;2.55;;;4.20;99.90;;;;;;5066760;28;20404;-91
2023/01/27 08:17:29;;;;;;;9.23;2.30;;;3.70;99.90;;;;;;5095991;28;20047;-91
2023/01/27 08:19:56;;;;;;;8.77;2.42;;;;;;;;;;5074397;28;20117;-89
2023/01/27 08:29:17;;;;;;;7.60;2.25;;;3.90;99.90;;;;;;5040258;28;20063;-91
2023/01/27 08:39:04;;;;;;;8.00;2.33;;;3.90;99.90;;;;;;5064465;28;20039;-89
2023/01/27 08:41:39;;;;;;;9.98;2.53;;;;;;;;;;5064224;28;20047;-89
2023/01/27 08:45:25;;;;;;;;;;;;;;;;;;;;;
2023/01/27 08:58:16;;;;;;;8.32;2.63;;;4.00;99.90;;;;;;5076097;28;20449;-88
2023/01/27 09:01:15;;;;;;;;;;;;;;;;;;;;;
2023/01/27 09:03:45;;;;;;;9.70;2.47;;;;;;;;;;5059016;28;20054;-88
2023/01/27 09:06:12;;;;;;;7.90;2.60;;;;;;;;;;5073147;28;20032;-88
2023/01/27 09:08:38;;;;;;;11.60;2.85;;;;;;;;;;5087040;28;20052;-88
2023/01/27 09:11:26;;;;;;;9.05;2.90;;;4.10;99.90;;;;;;5073560;28;20049;-89
2023/01/27 09:14:30;;;;;;;;;;;;;;;;;;;;;
2023/01/27 09:17:18;;;;;;;9.50;2.55;;;4.10;99.90;;;;;;5073685;28;20512;-88
2023/01/27 09:19:45;;;;;;;11.90;2.90;;;4.10;99.90;;;;;;5100403;28;20047;-89
2023/01/27 09:22:11;;;;;;;9.20;2.80;;;4.00;99.90;;;;;;5061740;28;20050;-89
2023/01/27 09:25:30;;;;;;;11.68;2.80;;;4.20;99.90;;;;;;5100699;28;20035;-89
2023/01/27 09:27:57;;;;;;;7.90;2.65;;;4.20;99.90;;;;;;5090198;28;20071;-88
2023/01/27 09:34:18;;;;;;;9.55;2.50;;;4.20;99.90;;;;;;5077684;28;20190;-91
2023/01/27 09:44:34;;;;;;;;;;;;;;;;;;;;;
2023/01/27 09:47:30;;;;;;;7.57;2.50;;;4.20;99.90;;;;;;5099929;28;20143;-88
2023/01/27 09:49:58;;;;;;;8.65;2.60;;;4.20;99.90;;;;;;5069220;28;21601;-91
2023/01/27 09:53:03;;;;;;;8.32;2.47;;;4.90;99.90;;;;;;5092907;28;20061;-88
2023/01/27 09:56:02;;;;;;;8.80;2.70;;;4.20;99.90;;;;;;5086339;28;20047;-87
2023/01/27 09:58:37;;;;;;;8.82;2.63;;;4.20;99.90;;;;;;5077050;28;20040;-89
2023/01/27 10:01:09;;;;;;;8.13;2.40;;;4.20;99.90;;;;;;5094046;28;20042;-88
2023/01/27 10:03:55;;;;;;;8.25;2.60;;;4.20;99.90;;;;;;5080490;28;20055;-89
2023/01/27 10:06:24;;;;;;;7.88;2.83;;;;;;;;;;5097341;28;21505;-90
2023/01/27 10:16:47;;;;;;;;;;;;;;;;;;;;;
2023/01/27 10:19:38;;;;;;;;;;;;;;;;;;;;;
2023/01/27 10:22:36;;;;;;;10.05;2.85;;;4.40;99.90;;;;;;5096085;28;20128;-88
2023/01/27 10:25:40;;;;;;;9.20;2.95;;;4.40;99.90;;;;;;5085704;28;20079;-90
2023/01/27 10:28:15;;;;;;;7.85;2.80;;;4.40;99.90;;;;;;5095332;28;20155;-90
2023/01/27 10:31:11;;;;;;;8.13;2.67;;;4.40;99.90;;;;;;5076104;28;20213;-91
2023/01/27 10:33:56;;;;;;;7.18;2.35;;;4.40;99.90;;;;;;5093060;28;20044;-89
2023/01/27 10:36:56;;;;;;;6.45;2.28;;;4.40;99.90;;;;;;5094777;28;20035;-89
2023/01/27 10:39:35;;;;;;;7.13;2.80;;;4.40;99.90;;;;;;5086047;28;20051;-88
2023/01/27 10:42:08;;;;;;;7.80;3.10;;;;;;;;;;5093300;28;20039;-92
2023/01/27 10:45:02;;;;;;;8.00;3.38;;;4.30;99.90;;;;;;5079037;28;20035;-89
2023/01/27 10:47:46;;;;;;;7.97;3.20;;;4.30;99.90;;;;;;5096959;28;20042;-91
2023/01/27 10:50:34;;;;;;;7.68;3.35;;;;;;;;;;5079832;28;20036;-91
2023/01/27 10:53:28;;;;;;;8.27;3.50;;;4.30;99.90;;;;;;5080736;28;20039;-90
2023/01/27 10:56:08;;;;;;;9.02;3.45;;;4.20;99.90;;;;;;5081359;28;20032;-91
2023/01/27 10:59:28;;;;;;;;;;;;;;;;;;;;;
2023/01/27 11:02:30;;;;;;;9.15;3.80;;;4.10;99.90;;;;;;5099635;28;20465;-90
2023/01/27 11:05:03;;;;;;;10.27;4.15;;;4.10;99.90;;;;;;5079760;28;20056;-91
2023/01/27 11:07:36;;;;;;;8.95;4.07;;;;;;;;;;5098070;28;20524;-91
2023/01/27 11:10:27;;;;;;;;;;;;;;;;;;;;;
2023/01/27 11:13:00;;;;;;;9.48;3.95;;;;;;;;;;5093836;28;20075;-90
2023/01/27 11:15:35;;;;;;;8.52;3.88;;;4.10;99.90;;;;;;5084296;28;20134;-91
2023/01/27 11:18:22;;;;;;;9.70;3.70;;;4.00;99.90;;;;;;5077219;28;20159;-91
2023/01/27 11:21:05;;;;;;;10.38;4.10;;;4.10;99.90;;;;;;5081903;28;20282;-90
2023/01/27 11:23:44;;;;;;;9.23;4.10;;;4.10;99.90;;;;;;5091153;28;20047;-91
2023/01/27 11:26:32;;;;;;;8.65;4.18;;;4.10;99.90;;;;;;5068248;28;20119;-90
2023/01/27 11:29:04;;;;;;;7.80;3.80;;;4.10;99.90;;;;;;5077166;28;20087;-89
2023/01/27 11:32:04;;;;;;;7.70;3.30;;;4.20;99.90;;;;;;5088169;28;20043;-90
2023/01/27 11:34:55;;;;;;;7.20;2.88;;;4.20;99.90;;;;;;5086919;28;20059;-87
2023/01/27 11:37:41;;;;;;;6.18;2.45;;;4.30;99.90;;;;;;5078592;28;20037;-90
2023/01/27 11:40:17;;;;;;;6.00;2.40;;;4.30;99.90;;;;;;5076795;28;20040;-90
2023/01/27 11:42:46;;;;;;;5.85;2.30;;;;;;;;;;5073093;28;20044;-90
2023/01/27 11:45:18;;;;;;;6.90;2.70;;;4.30;99.90;;;;;;5074629;28;20507;-87
2023/01/27 11:47:57;;;;;;;8.07;3.27;;;4.40;99.90;;;;;;5083654;28;20686;-90
2023/01/27 11:51:16;;;;;;;;;;;;;;;;;;;;;
2023/01/27 11:56:56;;;;;;;8.90;3.53;;;;;;;;;;5091446;28;20058;-89
2023/01/27 11:59:40;;;;;;;8.13;3.50;;;4.20;99.90;;;;;;5078603;28;20047;-88
2023/01/27 12:02:06;;;;;;;9.07;4.40;;;4.20;99.90;;;;;;5092532;28;20377;-89
2023/01/27 12:05:03;;;;;;;8.80;4.30;;;4.10;99.90;;;;;;5069519;28;20039;-88
2023/01/27 12:07:38;;;;;;;8.90;4.35;;;;;;;;;;5052416;28;20500;-89
2023/01/27 12:10:51;;;;;;;;;;;;;;;;;;;;;
2023/01/27 12:13:42;;;;;;;7.82;3.65;;;4.10;99.90;;;;;;5020911;28;20139;-88
2023/01/27 12:16:53;;;;;;;;;;;;;;;;;;;;;
2023/01/27 12:19:39;;;;;;;6.47;2.53;;;4.10;99.90;;;;;;5091777;28;20036;-88
2023/01/27 12:22:14;;;;;;;7.38;3.03;;;4.10;99.90;;;;;;5092965;28;20610;-88
2023/01/27 12:24:51;;;;;;;7.38;3.30;;;5.00;99.90;;;;;;5084597;28;20110;-88
2023/01/27 12:28:08;;;;;;;9.05;3.80;;;4.20;99.90;;;;;;5069746;28;20387;-89
2023/01/27 12:30:38;;;;;;;8.57;3.80;;;;;;;;;;5062588;28;20054;-90
2023/01/27 12:33:39;;;;;;;;;;;;;;;;;;;;;
2023/01/27 12:36:23;;;;;;;7.45;3.38;;;;;;;;;;5095626;28;20040;-91
2023/01/27 12:39:26;;;;;;;8.55;3.17;;;4.20;99.90;;;;;;5074514;28;20036;-90
2023/01/27 12:41:52;;;;;;;7.22;2.80;;;4.20;99.90;;;;;;5092585;28;20376;-89
2023/01/27 12:44:21;;;;;;;7.55;3.25;;;4.20;99.90;;;;;;5097326;28;20060;-89
2023/01/27 12:47:24;;;;;;;6.68;2.50;;;4.20;99.90;;;;;;5074057;28;20433;-91
2023/01/27 12:49:50;;;;;;;8.05;3.00;;;4.20;99.90;;;;;;5035432;28;20119;-88
2023/01/27 12:52:19;;;;;;;6.70;3.03;;;4.20;99.90;;;;;;5064124;28;20131;-89
2023/01/27 12:54:45;;;;;;;7.57;3.20;;;4.20;99.90;;;;;;5078973;28;20104;-87
2023/01/27 12:57:16;;;;;;;8.32;3.20;;;5.40;99.90;;;;;;5066586;28;20039;-86
2023/01/27 13:00:00;;;;;;;7.22;3.22;;;6.00;99.90;;;;;;5076597;28;20046;-87
2023/01/27 13:02:31;;;;;;;7.78;3.60;;;2.70;99.90;;;;;;5076537;28;20122;-88
2023/01/27 13:05:01;;;;;;;8.38;3.42;;;4.10;99.90;;;;;;5076786;28;20056;-89
2023/01/27 13:07:34;;;;;;;7.47;3.40;;;;;;;;;;5078500;28;20109;-88
2023/01/27 13:10:05;;;;;;;7.95;3.10;;;4.20;99.90;;;;;;5075035;28;20497;-87
2023/01/27 13:12:51;;;;;;;7.53;2.90;;;4.10;99.90;;;;;;5097987;28;20412;-91
2023/01/27 13:15:20;;;;;;;6.80;2.83;;;4.10;99.90;;;;;;5079051;28;20485;-89
2023/01/27 13:17:48;;;;;;;7.82;3.20;;;4.00;99.90;;;;;;5074020;28;20040;-89
2023/01/27 13:20:21;;;;;;;10.30;3.15;;;4.10;99.90;;;;;;5092706;28;20032;-89
2023/01/27 13:23:18;;;;;;;7.72;3.30;;;4.80;99.90;;;;;;5076131;28;20067;-90
2023/01/27 13:29:16;;;;;;;;;;;4.10;99.90;;;;;;5075490;28;20048;-90
2023/01/27 13:32:34;;;;;;;7.15;2.97;;;;;;;;;;5076235;28;20010;-89
2023/01/27 13:34:48;;;;;;;6.32;2.72;;;;;;;;;;5076282;28;20047;-91
2023/01/27 13:38:33;;;;;;;;;;;;;;;;;;;;;
2023/01/27 13:41:34;;;;;;;6.57;2.42;;;4.10;99.90;;;;;;5076570;28;20078;-93
2023/01/27 13:44:33;;;;;;;6.22;2.50;;;4.10;99.90;;;;;;5089740;28;20046;-87
2023/01/27 13:47:11;;;;;;;5.85;2.40;;;4.10;99.90;;;;;;5082781;28;20051;-89
2023/01/27 13:49:47;;;;;;;5.80;2.30;;;4.80;99.90;;;;;;5071279;28;20035;-92
2023/01/27 13:52:16;;;;;;;6.13;2.55;;;;;;;;;;5073355;28;20174;-88
2023/01/27 13:54:44;;;;;;;6.15;2.60;;;4.10;99.90;;;;;;5060925;28;20040;-89
2023/01/27 13:57:32;;;;;;;6.18;2.30;;;4.10;99.90;;;;;;5062432;28;20036;-90
2023/01/27 14:00:10;;;;;;;6.40;2.40;;;4.10;99.90;;;;;;5081178;28;20039;-90
2023/01/27 14:03:38;;;;;;;5.30;2.20;;;4.10;99.90;;;;;;5090681;28;21883;-91
2023/01/27 14:06:24;;;;;;;7.45;2.47;;;4.10;99.90;;;;;;5086117;28;20046;-94
2023/01/27 14:09:14;;;;;;;8.15;2.70;;;4.10;99.90;;;;;;5080607;28;20424;-95
2023/01/27 14:12:15;;;;;;;5.85;2.35;;;4.10;99.90;;;;;;5080131;28;20086;-93
2023/01/27 14:17:54;;;;;;;7.65;2.60;;;4.10;99.90;;;;;;5085845;28;20054;-89
2023/01/27 14:24:22;;;;;;;6.28;2.40;;;4.10;99.90;;;;;;5071565;28;20093;-91
2023/01/27 14:27:16;;;;;;;5.88;2.47;;;4.10;99.90;;;;;;5081444;28;20046;-90
2023/01/27 14:29:53;;;;;;;6.50;2.20;;;;;;;;;;5085265;28;20048;-92
2023/01/27 14:32:34;;;;;;;7.40;2.20;;;4.10;99.90;;;;;;5078454;28;20039;-91
2023/01/27 14:43:12;;;;;;;5.35;2.20;;;4.10;99.90;;;;;;5100732;28;20278;-90
2023/01/27 14:46:11;;;;;;;5.97;2.20;;;4.10;99.90;;;;;;5025348;28;20037;-88
2023/01/27 14:48:40;;;;;;;6.20;2.20;;;4.10;99.90;;;;;;5012192;28;20064;-87
2023/01/27 14:51:30;;;;;;;6.60;2.28;;;4.10;99.90;;;;;;5071857;28;20044;-92
2023/01/27 14:54:38;;;;;;;6.35;2.45;;;4.10;99.90;;;;;;5099570;28;20126;-88
2023/01/27 14:57:45;;;;;;;5.82;2.30;;;4.00;99.90;;;;;;5081302;28;20036;-89
2023/01/27 15:00:39;;;;;;;5.47;2.20;;;4.00;99.90;;;;;;5080131;28;20058;-88
2023/01/27 15:03:20;;;;;;;6.20;2.40;;;4.00;99.90;;;;;;5081637;28;20036;-91
2023/01/27 15:06:11;;;;;;;7.18;2.33;;;3.90;99.90;;;;;;5077578;28;20039;-90
2023/01/27 15:08:53;;;;;;;7.18;2.53;;;3.90;99.90;;;;;;5079324;28;20086;-91
2023/01/27 15:11:33;;;;;;;6.70;2.50;;;3.90;99.90;;;;;;5101120;28;20036;-93
2023/01/27 15:14:17;;;;;;;6.00;2.30;;;4.90;99.90;;;;;;5094183;28;20047;-92
2023/01/27 15:16:52;;;;;;;5.95;2.42;;;;;;;;;;5082598;28;20104;-89
2023/01/27 15:19:46;;;;;;;6.13;2.50;;;3.80;99.90;;;;;;5081998;28;20169;-92
2023/01/27 15:22:31;;;;;;;6.30;2.55;;;3.70;99.90;;;;;;5082325;28;20032;-92
2023/01/27 15:25:18;;;;;;;4.88;2.13;;;5.10;99.90;;;;;;5077252;28;20047;-88
2023/01/27 15:27:44;;;;;;;11.27;5.25;;;;;;;;;;5092223;28;20059;-90
2023/01/27 15:30:47;;;;;;;6.38;2.60;;;3.80;99.90;;;;;;5075669;28;20105;-91
2023/01/27 15:33:51;;;;;;;7.38;2.50;;;3.70;99.90;;;;;;5064393;28;20131;-89
2023/01/27 15:36:25;;;;;;;6.13;2.40;;;3.70;99.90;;;;;;5080900;28;20451;-89
2023/01/27 15:39:11;;;;;;;5.65;2.30;;;3.70;99.90;;;;;;5085456;28;20115;-89
2023/01/27 15:42:05;;;;;;;6.50;2.38;;;3.60;99.90;;;;;;5029311;28;20438;-90
2023/01/27 15:44:34;;;;;;;6.18;2.40;;;;;;;;;;5081681;28;20118;-90
2023/01/27 15:47:20;;;;;;;6.70;2.50;;;3.60;99.90;;;;;;5074500;28;20054;-90
2023/01/27 15:50:16;;;;;;;8.15;3.15;;;3.60;99.90;;;;;;5102123;28;20047;-88
2023/01/27 15:52:47;;;;;;;7.40;2.83;;;3.60;99.90;;;;;;5086115;28;20130;-89
2023/01/27 15:55:32;;;;;;;6.32;2.78;;;3.60;99.90;;;;;;5080481;28;20044;-88
2023/01/27 15:58:10;;;;;;;6.45;2.90;;;1.70;99.90;;;;;;5081765;28;20046;-88
2023/01/27 16:00:40;;;;;;;6.75;2.70;;;3.50;99.90;;;;;;5095400;28;20082;-89
2023/01/27 16:03:31;;;;;;;6.15;2.53;;;3.50;99.90;;;;;;5089475;28;20086;-91
2023/01/27 16:06:17;;;;;;;5.95;2.55;;;;;;;;;;5082602;28;20052;-88
2023/01/27 16:08:54;;;;;;;8.52;2.60;;;3.50;99.90;;;;;;5078315;28;20062;-90
2023/01/27 16:11:36;;;;;;;5.78;2.47;;;;;;;;;;5081068;28;20054;-90